createdAt,value
2017-05-17T00:00:30.279Z,0
2017-05-17T00:01:42.822Z,0
2017-05-17T00:02:55.389Z,0
2017-05-17T00:04:07.638Z,0
2017-05-17T00:05:19.854Z,0
2017-05-17T00:06:32.376Z,0
2017-05-17T00:07:44.919Z,0
2017-05-17T00:08:57.737Z,0
2017-05-17T00:10:10.264Z,0
2017-05-17T00:11:22.802Z,0
2017-05-17T00:12:35.348Z,0
2017-05-17T00:13:47.902Z,0
2017-05-17T00:15:00.478Z,0
2017-05-17T00:16:12.722Z,0
2017-05-17T00:17:25.291Z,0
2017-05-17T00:18:37.827Z,0
2017-05-17T00:19:50.677Z,0
2017-05-17T00:21:03.227Z,0
2017-05-17T00:22:15.772Z,0
2017-05-17T00:23:28.310Z,0
2017-05-17T00:24:40.857Z,0
2017-05-17T00:25:53.385Z,0
2017-05-17T00:27:05.911Z,0
2017-05-17T00:28:18.468Z,0
2017-05-17T00:29:30.690Z,0
2017-05-17T00:30:43.547Z,0
2017-05-17T00:31:56.073Z,0
2017-05-17T00:33:08.632Z,0
2017-05-17T00:34:21.177Z,0
2017-05-17T00:35:33.705Z,0
2017-05-17T00:36:46.229Z,0
2017-05-17T00:37:58.471Z,0
2017-05-17T00:39:10.995Z,0
2017-05-17T00:40:23.254Z,0
2017-05-17T00:41:35.786Z,0
2017-05-17T00:42:48.345Z,0
2017-05-17T00:44:00.891Z,0
2017-05-17T00:45:13.395Z,0
2017-05-17T00:46:25.920Z,0
2017-05-17T00:47:38.479Z,0
2017-05-17T00:48:51.032Z,0
2017-05-17T00:50:03.571Z,0
2017-05-17T00:51:15.780Z,0
2017-05-17T00:52:28.041Z,0
2017-05-17T00:53:40.545Z,0
2017-05-17T00:54:53.079Z,0
2017-05-17T00:56:05.678Z,0
2017-05-17T00:57:17.904Z,0
2017-05-17T00:58:30.450Z,0
2017-05-17T00:59:42.974Z,0
2017-05-17T01:00:55.509Z,0
2017-05-17T01:02:07.728Z,0
2017-05-17T01:03:19.962Z,0
2017-05-17T01:04:32.534Z,0
2017-05-17T01:05:45.093Z,0
2017-05-17T01:06:57.642Z,0
2017-05-17T01:08:09.885Z,0
2017-05-17T01:09:22.508Z,0
2017-05-17T01:10:34.738Z,0
2017-05-17T01:11:47.309Z,0
2017-05-17T01:12:59.850Z,0
2017-05-17T01:14:12.097Z,0
2017-05-17T01:15:24.617Z,0
2017-05-17T01:16:36.559Z,0
2017-05-17T01:17:49.102Z,0
2017-05-17T01:19:01.649Z,0
2017-05-17T01:20:14.194Z,0
2017-05-17T01:21:26.750Z,0
2017-05-17T01:22:39.244Z,0
2017-05-17T01:23:51.535Z,0
2017-05-17T01:25:04.056Z,0
2017-05-17T01:26:16.284Z,0
2017-05-17T01:27:28.881Z,0
2017-05-17T01:28:41.418Z,0
2017-05-17T01:29:53.944Z,0
2017-05-17T01:31:06.189Z,0
2017-05-17T01:32:18.714Z,0
2017-05-17T01:33:31.281Z,0
2017-05-17T01:34:43.823Z,0
2017-05-17T01:35:56.070Z,0
2017-05-17T01:37:08.624Z,0
2017-05-17T01:38:21.165Z,0
2017-05-17T01:39:33.362Z,0
2017-05-17T01:40:45.956Z,0
2017-05-17T01:41:58.205Z,0
2017-05-17T01:43:10.454Z,0
2017-05-17T01:44:22.998Z,0
2017-05-17T01:45:35.546Z,0
2017-05-17T01:46:48.086Z,0
2017-05-17T01:48:00.629Z,0
2017-05-17T01:49:12.874Z,0
2017-05-17T01:50:25.377Z,0
2017-05-17T01:51:37.911Z,0
2017-05-17T01:52:50.446Z,0
2017-05-17T01:54:03.015Z,0
2017-05-17T01:55:15.563Z,0
2017-05-17T01:56:28.095Z,0
2017-05-17T01:57:40.967Z,0
2017-05-17T01:58:53.516Z,0
2017-05-17T02:00:05.716Z,0
2017-05-17T02:01:18.239Z,0
2017-05-17T02:02:30.764Z,0
2017-05-17T02:03:43.309Z,0
2017-05-17T02:04:55.881Z,0
2017-05-17T02:06:08.446Z,0
2017-05-17T02:07:20.967Z,0
2017-05-17T02:08:33.743Z,0
2017-05-17T02:09:46.259Z,0
2017-05-17T02:10:58.497Z,0
2017-05-17T02:12:11.054Z,0
2017-05-17T02:13:23.596Z,0
2017-05-17T02:14:36.138Z,0
2017-05-17T02:15:48.681Z,0
2017-05-17T02:17:01.213Z,0
2017-05-17T02:18:13.157Z,0
2017-05-17T02:19:26.023Z,0
2017-05-17T02:20:38.549Z,0
2017-05-17T02:21:51.113Z,0
2017-05-17T02:23:03.656Z,0
2017-05-17T02:24:16.459Z,0
2017-05-17T02:25:29.010Z,0
2017-05-17T02:26:41.568Z,0
2017-05-17T02:27:54.122Z,0
2017-05-17T02:29:06.363Z,0
2017-05-17T02:30:18.896Z,0
2017-05-17T02:31:31.431Z,0
2017-05-17T02:32:43.977Z,0
2017-05-17T02:33:56.523Z,0
2017-05-17T02:35:09.048Z,0
2017-05-17T02:36:21.644Z,0
2017-05-17T02:37:34.166Z,0
2017-05-17T02:38:46.385Z,0
2017-05-17T02:39:58.909Z,0
2017-05-17T02:41:11.748Z,0
2017-05-17T02:42:23.982Z,0
2017-05-17T02:43:36.518Z,0
2017-05-17T02:44:49.061Z,0
2017-05-17T02:46:01.586Z,0
2017-05-17T02:47:14.130Z,0
2017-05-17T02:48:26.674Z,0
2017-05-17T02:49:39.215Z,0
2017-05-17T02:50:51.497Z,0
2017-05-17T02:52:03.691Z,0
2017-05-17T02:53:16.203Z,0
2017-05-17T02:54:28.731Z,0
2017-05-17T02:55:41.271Z,0
2017-05-17T02:56:53.505Z,0
2017-05-17T02:58:05.737Z,0
2017-05-17T02:59:18.276Z,5
2017-05-17T03:00:30.833Z,5
2017-05-17T03:01:43.120Z,5
2017-05-17T03:02:55.646Z,5
2017-05-17T03:04:08.178Z,5
2017-05-17T03:05:20.449Z,5
2017-05-17T03:06:32.666Z,5
2017-05-17T03:07:45.433Z,5
2017-05-17T03:08:58.080Z,10
2017-05-17T03:10:10.032Z,10
2017-05-17T03:11:22.591Z,10
2017-05-17T03:12:34.525Z,10
2017-05-17T03:13:47.101Z,15
2017-05-17T03:14:59.654Z,15
2017-05-17T03:16:12.186Z,15
2017-05-17T03:17:24.410Z,15
2017-05-17T03:18:36.952Z,20
2017-05-17T03:19:49.476Z,20
2017-05-17T03:21:02.018Z,20
2017-05-17T03:22:14.237Z,25
2017-05-17T03:23:26.459Z,25
2017-05-17T03:24:39.297Z,30
2017-05-17T03:25:51.526Z,30
2017-05-17T03:27:04.050Z,35
2017-05-17T03:28:15.995Z,35
2017-05-17T03:29:28.542Z,40
2017-05-17T03:30:41.106Z,40
2017-05-17T03:31:53.639Z,45
2017-05-17T03:33:06.193Z,50
2017-05-17T03:34:18.743Z,50
2017-05-17T03:35:30.985Z,55
2017-05-17T03:36:43.513Z,60
2017-05-17T03:37:55.754Z,65
2017-05-17T03:39:08.297Z,70
2017-05-17T03:40:20.573Z,75
2017-05-17T03:41:32.790Z,75
2017-05-17T03:42:45.318Z,75
2017-05-17T03:43:57.860Z,85
2017-05-17T03:45:10.115Z,90
2017-05-17T03:46:22.673Z,95
2017-05-17T03:47:35.204Z,100
2017-05-17T03:48:47.723Z,105
2017-05-17T03:50:00.243Z,110
2017-05-17T03:51:12.782Z,115
2017-05-17T03:52:25.330Z,120
2017-05-17T03:53:37.581Z,125
2017-05-17T03:54:50.106Z,130
2017-05-17T03:56:02.326Z,130
2017-05-17T03:57:14.869Z,135
2017-05-17T03:58:27.111Z,135
2017-05-17T03:59:39.660Z,140
2017-05-17T04:00:51.882Z,140
2017-05-17T04:02:04.455Z,145
2017-05-17T04:03:17.017Z,145
2017-05-17T04:04:29.249Z,150
2017-05-17T04:05:41.794Z,150
2017-05-17T04:06:54.337Z,155
2017-05-17T04:08:06.858Z,160
2017-05-17T04:09:19.382Z,170
2017-05-17T04:10:31.326Z,175
2017-05-17T04:11:43.845Z,180
2017-05-17T04:12:56.369Z,190
2017-05-17T04:14:08.593Z,195
2017-05-17T04:15:21.150Z,200
2017-05-17T04:16:33.380Z,205
2017-05-17T04:17:45.928Z,215
2017-05-17T04:18:58.802Z,220
2017-05-17T04:20:11.041Z,225
2017-05-17T04:21:23.564Z,230
2017-05-17T04:22:36.102Z,240
2017-05-17T04:23:48.333Z,245
2017-05-17T04:25:00.867Z,250
2017-05-17T04:26:12.525Z,255
2017-05-17T04:27:24.745Z,260
2017-05-17T04:28:36.691Z,270
2017-05-17T04:29:49.255Z,275
2017-05-17T04:31:01.822Z,280
2017-05-17T04:32:14.380Z,290
2017-05-17T04:33:26.623Z,295
2017-05-17T04:34:39.165Z,300
2017-05-17T04:35:51.393Z,310
2017-05-17T04:37:03.937Z,320
2017-05-17T04:38:16.480Z,330
2017-05-17T04:39:29.019Z,345
2017-05-17T04:40:41.268Z,350
2017-05-17T04:41:53.786Z,355
2017-05-17T04:43:06.031Z,365
2017-05-17T04:44:18.582Z,375
2017-05-17T04:45:31.127Z,380
2017-05-17T04:46:43.653Z,385
2017-05-17T04:47:56.201Z,390
2017-05-17T04:49:08.785Z,390
2017-05-17T04:50:21.320Z,390
2017-05-17T04:51:33.881Z,390
2017-05-17T04:52:46.410Z,390
2017-05-17T04:53:58.956Z,385
2017-05-17T04:55:11.490Z,380
2017-05-17T04:56:24.018Z,375
2017-05-17T04:57:36.272Z,370
2017-05-17T04:58:48.787Z,370
2017-05-17T05:00:01.006Z,370
2017-05-17T05:01:13.528Z,370
2017-05-17T05:02:26.078Z,380
2017-05-17T05:03:38.623Z,380
2017-05-17T05:04:50.841Z,385
2017-05-17T05:06:03.088Z,385
2017-05-17T05:07:15.046Z,380
2017-05-17T05:08:27.587Z,385
2017-05-17T05:09:40.103Z,385
2017-05-17T05:10:52.665Z,385
2017-05-17T05:12:04.908Z,385
2017-05-17T05:13:17.142Z,380
2017-05-17T05:14:29.691Z,375
2017-05-17T05:15:41.949Z,370
2017-05-17T05:16:54.478Z,365
2017-05-17T05:18:06.729Z,370
2017-05-17T05:19:19.294Z,360
2017-05-17T05:20:31.829Z,350
2017-05-17T05:21:44.376Z,345
2017-05-17T05:22:56.921Z,345
2017-05-17T05:24:09.454Z,335
2017-05-17T05:25:21.396Z,330
2017-05-17T05:26:33.938Z,335
2017-05-17T05:27:46.438Z,350
2017-05-17T05:28:58.980Z,360
2017-05-17T05:30:11.479Z,375
2017-05-17T05:31:23.726Z,390
2017-05-17T05:32:36.275Z,415
2017-05-17T05:33:48.839Z,430
2017-05-17T05:35:01.357Z,435
2017-05-17T05:36:13.862Z,445
2017-05-17T05:37:25.783Z,455
2017-05-17T05:38:38.350Z,435
2017-05-17T05:39:50.600Z,425
2017-05-17T05:41:03.173Z,405
2017-05-17T05:42:15.719Z,390
2017-05-17T05:43:27.685Z,395
2017-05-17T05:44:40.205Z,410
2017-05-17T05:45:53.072Z,370
2017-05-17T05:47:05.604Z,340
2017-05-17T05:48:18.193Z,335
2017-05-17T05:49:30.420Z,335
2017-05-17T05:50:42.664Z,335
2017-05-17T05:51:54.912Z,355
2017-05-17T05:53:07.470Z,330
2017-05-17T05:54:20.002Z,330
2017-05-17T05:55:32.545Z,360
2017-05-17T05:56:44.760Z,425
2017-05-17T05:57:57.313Z,555
2017-05-17T05:59:09.562Z,540
2017-05-17T06:00:21.505Z,420
2017-05-17T06:01:34.127Z,370
2017-05-17T06:02:46.698Z,370
2017-05-17T06:03:59.257Z,380
2017-05-17T06:05:11.492Z,400
2017-05-17T06:06:23.411Z,435
2017-05-17T06:07:35.333Z,545
2017-05-17T06:08:47.866Z,540
2017-05-17T06:10:00.390Z,495
2017-05-17T06:11:12.615Z,465
2017-05-17T06:12:24.858Z,485
2017-05-17T06:13:37.387Z,495
2017-05-17T06:14:49.632Z,680
2017-05-17T06:16:02.175Z,830
2017-05-17T06:17:14.747Z,1050
2017-05-17T06:18:27.596Z,1205
2017-05-17T06:19:40.140Z,1030
2017-05-17T06:20:52.682Z,745
2017-05-17T06:22:05.231Z,775
2017-05-17T06:23:17.155Z,830
2017-05-17T06:24:29.748Z,915
2017-05-17T06:25:41.645Z,1035
2017-05-17T06:26:54.225Z,1395
2017-05-17T06:28:06.484Z,1570
2017-05-17T06:29:18.409Z,1595
2017-05-17T06:30:30.950Z,1615
2017-05-17T06:31:43.496Z,1610
2017-05-17T06:32:55.994Z,1705
2017-05-17T06:34:08.559Z,1720
2017-05-17T06:35:20.804Z,1680
2017-05-17T06:36:33.034Z,1755
2017-05-17T06:37:45.580Z,1795
2017-05-17T06:38:58.140Z,1825
2017-05-17T06:40:10.384Z,1880
2017-05-17T06:41:22.634Z,1900
2017-05-17T06:42:35.161Z,1845
2017-05-17T06:43:47.725Z,1765
2017-05-17T06:45:00.283Z,1700
2017-05-17T06:46:12.552Z,1720
2017-05-17T06:47:24.810Z,1650
2017-05-17T06:48:37.394Z,1630
2017-05-17T06:49:49.938Z,1795
2017-05-17T06:51:02.236Z,1835
2017-05-17T06:52:13.897Z,1870
2017-05-17T06:53:26.468Z,1930
2017-05-17T06:54:38.711Z,1840
2017-05-17T06:55:51.241Z,2005
2017-05-17T06:57:03.503Z,2030
2017-05-17T06:58:15.735Z,2050
2017-05-17T06:59:28.302Z,2105
2017-05-17T07:00:40.865Z,2025
2017-05-17T07:01:53.425Z,2045
2017-05-17T07:03:05.670Z,2020
2017-05-17T07:04:17.910Z,1850
2017-05-17T07:05:30.479Z,2055
2017-05-17T07:06:42.807Z,2065
2017-05-17T07:07:55.352Z,2045
2017-05-17T07:09:07.920Z,1950
2017-05-17T07:10:20.168Z,2190
2017-05-17T07:11:32.411Z,2105
2017-05-17T07:12:44.686Z,2165
2017-05-17T07:13:57.246Z,2195
2017-05-17T07:15:09.795Z,2265
2017-05-17T07:16:22.346Z,2270
2017-05-17T07:17:34.892Z,2205
2017-05-17T07:18:47.412Z,2155
2017-05-17T07:19:59.935Z,2090
2017-05-17T07:21:12.509Z,2305
2017-05-17T07:22:25.067Z,2310
2017-05-17T07:23:37.573Z,2325
2017-05-17T07:24:50.117Z,2435
2017-05-17T07:26:02.344Z,2380
2017-05-17T07:27:14.933Z,2375
2017-05-17T07:28:27.522Z,2450
2017-05-17T07:29:39.775Z,2555
2017-05-17T07:30:52.000Z,2565
2017-05-17T07:32:04.552Z,2615
2017-05-17T07:33:16.830Z,2550
2017-05-17T07:34:29.384Z,2620
2017-05-17T07:35:41.980Z,2735
2017-05-17T07:36:54.528Z,2660
2017-05-17T07:38:07.114Z,2675
2017-05-17T07:39:19.690Z,2705
2017-05-17T07:40:32.258Z,2555
2017-05-17T07:41:44.811Z,2730
2017-05-17T07:42:57.372Z,2680
2017-05-17T07:44:09.625Z,2720
2017-05-17T07:45:21.567Z,2685
2017-05-17T07:46:34.122Z,2495
2017-05-17T07:47:46.666Z,2275
2017-05-17T07:48:59.261Z,2595
2017-05-17T07:50:11.808Z,2795
2017-05-17T07:51:24.056Z,2740
2017-05-17T07:52:36.647Z,2785
2017-05-17T07:53:49.172Z,2880
2017-05-17T07:55:01.440Z,2740
2017-05-17T07:56:13.689Z,2855
2017-05-17T07:57:26.251Z,2825
2017-05-17T07:58:38.477Z,2805
2017-05-17T07:59:51.027Z,2890
2017-05-17T08:01:03.569Z,2925
2017-05-17T08:02:15.827Z,2995
2017-05-17T08:03:28.387Z,2895
2017-05-17T08:04:40.948Z,2755
2017-05-17T08:05:53.206Z,2795
2017-05-17T08:07:05.792Z,3025
2017-05-17T08:08:18.072Z,3020
2017-05-17T08:09:30.624Z,2965
2017-05-17T08:10:43.186Z,2930
2017-05-17T08:11:55.736Z,2910
2017-05-17T08:13:08.305Z,3115
2017-05-17T08:14:20.866Z,3150
2017-05-17T08:15:33.436Z,3015
2017-05-17T08:16:45.993Z,3005
2017-05-17T08:17:58.840Z,3010
2017-05-17T08:19:11.116Z,2930
2017-05-17T08:20:23.678Z,2835
2017-05-17T08:21:36.224Z,2980
2017-05-17T08:22:48.474Z,2940
2017-05-17T08:24:00.770Z,3220
2017-05-17T08:25:13.336Z,3160
2017-05-17T08:26:25.875Z,2360
2017-05-17T08:27:38.411Z,875
2017-05-17T08:28:50.701Z,960
2017-05-17T08:30:03.269Z,2190
2017-05-17T08:31:15.215Z,2660
2017-05-17T08:32:27.478Z,2795
2017-05-17T08:33:39.755Z,2670
2017-05-17T08:34:52.325Z,2470
2017-05-17T08:36:04.891Z,2510
2017-05-17T08:37:17.154Z,2395
2017-05-17T08:38:29.723Z,2070
2017-05-17T08:39:42.005Z,1910
2017-05-17T08:40:54.579Z,1860
2017-05-17T08:42:06.907Z,1735
2017-05-17T08:43:19.168Z,1190
2017-05-17T08:44:31.714Z,540
2017-05-17T08:45:43.985Z,915
2017-05-17T08:46:56.238Z,1480
2017-05-17T08:48:08.801Z,1530
2017-05-17T08:49:21.397Z,1495
2017-05-17T08:50:33.977Z,1445
2017-05-17T08:51:46.513Z,1550
2017-05-17T08:52:59.068Z,1525
2017-05-17T08:54:11.313Z,1490
2017-05-17T08:55:23.864Z,1545
2017-05-17T08:56:36.451Z,1500
2017-05-17T08:57:49.086Z,1520
2017-05-17T08:59:01.682Z,1475
2017-05-17T09:00:13.659Z,1535
2017-05-17T09:01:25.890Z,1645
2017-05-17T09:02:38.415Z,1600
2017-05-17T09:03:50.986Z,1535
2017-05-17T09:05:03.555Z,1560
2017-05-17T09:06:15.477Z,1615
2017-05-17T09:07:28.036Z,1600
2017-05-17T09:08:40.364Z,1725
2017-05-17T09:09:52.641Z,1685
2017-05-17T09:11:04.909Z,1600
2017-05-17T09:12:17.176Z,1695
2017-05-17T09:13:29.425Z,1895
2017-05-17T09:14:41.677Z,2050
2017-05-17T09:15:53.939Z,1950
2017-05-17T09:17:06.190Z,1985
2017-05-17T09:18:18.185Z,2155
2017-05-17T09:19:30.769Z,2070
2017-05-17T09:20:43.044Z,2155
2017-05-17T09:21:55.604Z,2305
2017-05-17T09:23:08.186Z,1580
2017-05-17T09:24:20.157Z,575
2017-05-17T09:25:32.125Z,1795
2017-05-17T09:26:44.405Z,3125
2017-05-17T09:27:56.974Z,3195
2017-05-17T09:29:09.513Z,3205
2017-05-17T09:30:22.074Z,4010
2017-05-17T09:31:34.642Z,3985
2017-05-17T09:32:46.903Z,3680
2017-05-17T09:33:59.475Z,3915
2017-05-17T09:35:12.042Z,3945
2017-05-17T09:36:24.591Z,4185
2017-05-17T09:37:37.169Z,4175
2017-05-17T09:38:49.712Z,4000
2017-05-17T09:40:01.965Z,4135
2017-05-17T09:41:14.503Z,4110
2017-05-17T09:42:26.755Z,3875
2017-05-17T09:43:39.031Z,3655
2017-05-17T09:44:51.618Z,3990
2017-05-17T09:46:04.169Z,4180
2017-05-17T09:47:16.434Z,3045
2017-05-17T09:48:29.007Z,1380
2017-05-17T09:49:41.542Z,835
2017-05-17T09:50:53.824Z,1480
2017-05-17T09:52:06.092Z,3095
2017-05-17T09:53:18.341Z,3985
2017-05-17T09:54:30.911Z,3795
2017-05-17T09:55:43.459Z,3790
2017-05-17T09:56:56.057Z,3905
2017-05-17T09:58:08.039Z,4195
2017-05-17T09:59:20.296Z,4290
2017-05-17T10:00:32.880Z,4035
2017-05-17T10:01:44.863Z,4250
2017-05-17T10:02:56.805Z,4365
2017-05-17T10:04:09.068Z,4095
2017-05-17T10:05:21.618Z,4130
2017-05-17T10:06:34.198Z,4275
2017-05-17T10:07:46.767Z,4205
2017-05-17T10:08:59.366Z,4030
2017-05-17T10:10:11.634Z,4325
2017-05-17T10:11:23.307Z,4390
2017-05-17T10:12:35.879Z,4350
2017-05-17T10:13:48.472Z,4385
2017-05-17T10:15:01.035Z,4135
2017-05-17T10:16:13.003Z,4455
2017-05-17T10:17:24.956Z,4470
2017-05-17T10:18:37.507Z,4320
2017-05-17T10:19:50.090Z,4110
2017-05-17T10:21:02.350Z,4240
2017-05-17T10:22:14.613Z,4325
2017-05-17T10:23:26.904Z,3960
2017-05-17T10:24:39.485Z,3655
2017-05-17T10:25:52.031Z,4090
2017-05-17T10:27:04.278Z,4050
2017-05-17T10:28:16.546Z,4015
2017-05-17T10:29:29.115Z,4085
2017-05-17T10:30:41.686Z,4200
2017-05-17T10:31:54.233Z,3910
2017-05-17T10:33:06.480Z,4040
2017-05-17T10:34:18.749Z,4330
2017-05-17T10:35:31.301Z,4210
2017-05-17T10:36:43.285Z,4085
2017-05-17T10:37:55.554Z,3930
2017-05-17T10:39:08.108Z,4155
2017-05-17T10:40:20.085Z,4280
2017-05-17T10:41:32.670Z,4640
2017-05-17T10:42:45.227Z,4410
2017-05-17T10:43:57.497Z,3985
2017-05-17T10:45:10.067Z,3890
2017-05-17T10:46:22.334Z,4085
2017-05-17T10:47:34.601Z,4245
2017-05-17T10:48:47.154Z,4375
2017-05-17T10:49:59.742Z,4380
2017-05-17T10:51:12.310Z,4190
2017-05-17T10:52:24.883Z,3905
2017-05-17T10:53:37.461Z,4205
2017-05-17T10:54:49.729Z,4475
2017-05-17T10:56:02.280Z,4265
2017-05-17T10:57:14.526Z,4480
2017-05-17T10:58:26.811Z,4365
2017-05-17T10:59:39.064Z,4590
2017-05-17T11:00:51.630Z,4610
2017-05-17T11:02:04.175Z,4610
2017-05-17T11:03:16.754Z,4325
2017-05-17T11:04:29.299Z,4105
2017-05-17T11:05:41.860Z,4365
2017-05-17T11:06:54.431Z,4285
2017-05-17T11:08:07.013Z,4425
2017-05-17T11:09:19.580Z,4435
2017-05-17T11:10:32.143Z,4025
2017-05-17T11:11:44.418Z,4065
2017-05-17T11:12:56.387Z,4080
2017-05-17T11:14:08.647Z,4140
2017-05-17T11:15:20.914Z,3990
2017-05-17T11:16:33.502Z,4115
2017-05-17T11:17:46.105Z,4320
2017-05-17T11:18:58.080Z,4300
2017-05-17T11:20:10.638Z,4255
2017-05-17T11:21:22.921Z,4210
2017-05-17T11:22:35.204Z,4395
2017-05-17T11:23:47.481Z,4285
2017-05-17T11:24:59.728Z,4255
2017-05-17T11:26:12.002Z,4310
2017-05-17T11:27:24.300Z,4180
2017-05-17T11:28:36.872Z,3990
2017-05-17T11:29:49.166Z,3755
2017-05-17T11:31:01.427Z,3390
2017-05-17T11:32:13.373Z,3710
2017-05-17T11:33:25.942Z,3645
2017-05-17T11:34:38.512Z,3480
2017-05-17T11:35:51.041Z,3260
2017-05-17T11:37:03.611Z,3360
2017-05-17T11:38:16.182Z,3330
2017-05-17T11:39:28.757Z,3470
2017-05-17T11:40:41.025Z,3365
2017-05-17T11:41:53.591Z,3365
2017-05-17T11:43:05.844Z,3345
2017-05-17T11:44:18.116Z,3210
2017-05-17T11:45:30.392Z,3100
2017-05-17T11:46:42.979Z,2810
2017-05-17T11:47:55.250Z,2820
2017-05-17T11:49:07.805Z,2890
2017-05-17T11:50:20.384Z,2640
2017-05-17T11:51:32.618Z,2745
2017-05-17T11:52:45.208Z,2530
2017-05-17T11:53:57.733Z,2225
2017-05-17T11:55:10.022Z,2465
2017-05-17T11:56:22.279Z,2580
2017-05-17T11:57:34.868Z,2295
2017-05-17T11:58:46.845Z,2160
2017-05-17T11:59:58.780Z,2120
2017-05-17T12:01:11.356Z,2060
2017-05-17T12:02:23.351Z,2160
2017-05-17T12:03:35.600Z,2170
2017-05-17T12:04:47.847Z,2215
2017-05-17T12:05:59.884Z,2230
2017-05-17T12:07:12.452Z,2150
2017-05-17T12:08:24.706Z,915
2017-05-17T12:09:37.306Z,1795
2017-05-17T12:10:49.847Z,2420
2017-05-17T12:12:02.399Z,2775
2017-05-17T12:13:14.966Z,3425
2017-05-17T12:14:26.938Z,3475
2017-05-17T12:15:39.502Z,3785
2017-05-17T12:16:52.072Z,3810
2017-05-17T12:18:04.343Z,4060
2017-05-17T12:19:16.893Z,3915
2017-05-17T12:20:29.465Z,3970
2017-05-17T12:21:42.014Z,4150
2017-05-17T12:22:54.606Z,4155
2017-05-17T12:24:06.256Z,4340
2017-05-17T12:25:18.253Z,4415
2017-05-17T12:26:30.522Z,4575
2017-05-17T12:27:43.069Z,4745
2017-05-17T12:28:55.657Z,4800
2017-05-17T12:30:07.966Z,4585
2017-05-17T12:31:19.970Z,4510
2017-05-17T12:32:32.535Z,4145
2017-05-17T12:33:45.099Z,3790
2017-05-17T12:34:57.416Z,3940
2017-05-17T12:36:09.711Z,3965
2017-05-17T12:37:22.257Z,4020
2017-05-17T12:38:35.071Z,3870
2017-05-17T12:39:47.329Z,3995
2017-05-17T12:40:59.926Z,4030
2017-05-17T12:42:12.212Z,4655
2017-05-17T12:43:24.554Z,5100
2017-05-17T12:44:37.129Z,5345
2017-05-17T12:45:49.404Z,5590
2017-05-17T12:47:01.946Z,5225
2017-05-17T12:48:14.526Z,4820
2017-05-17T12:49:26.769Z,4645
2017-05-17T12:50:39.334Z,4920
2017-05-17T12:51:51.913Z,4850
2017-05-17T12:53:04.175Z,4750
2017-05-17T12:54:16.429Z,5085
2017-05-17T12:55:28.395Z,5250
2017-05-17T12:56:40.622Z,4935
2017-05-17T12:57:53.180Z,4855
2017-05-17T12:59:05.759Z,4965
2017-05-17T13:00:18.023Z,4980
2017-05-17T13:01:30.579Z,4750
2017-05-17T13:02:43.149Z,4855
2017-05-17T13:03:55.110Z,5075
2017-05-17T13:05:07.385Z,5240
2017-05-17T13:06:19.655Z,5290
2017-05-17T13:07:32.211Z,4885
2017-05-17T13:08:44.176Z,4900
2017-05-17T13:09:56.750Z,5020
2017-05-17T13:11:09.314Z,4950
2017-05-17T13:12:21.292Z,5125
2017-05-17T13:13:33.866Z,5005
2017-05-17T13:14:46.408Z,865
2017-05-17T13:15:58.998Z,2120
2017-05-17T13:17:11.554Z,1130
2017-05-17T13:18:23.795Z,630
2017-05-17T13:19:36.340Z,1030
2017-05-17T13:20:48.890Z,5230
2017-05-17T13:22:01.184Z,4950
2017-05-17T13:23:13.454Z,5195
2017-05-17T13:24:26.005Z,5070
2017-05-17T13:25:38.586Z,4675
2017-05-17T13:26:51.166Z,4770
2017-05-17T13:28:03.415Z,4900
2017-05-17T13:29:15.959Z,4695
2017-05-17T13:30:28.530Z,4710
2017-05-17T13:31:41.115Z,4890
2017-05-17T13:32:53.677Z,4985
2017-05-17T13:34:05.961Z,4930
2017-05-17T13:35:18.214Z,2160
2017-05-17T13:36:30.774Z,4830
2017-05-17T13:37:43.578Z,4740
2017-05-17T13:38:56.146Z,4945
2017-05-17T13:40:08.702Z,4665
2017-05-17T13:41:21.007Z,4730
2017-05-17T13:42:33.282Z,4700
2017-05-17T13:43:45.856Z,5110
2017-05-17T13:44:57.821Z,5045
2017-05-17T13:46:10.395Z,5475
2017-05-17T13:47:22.949Z,5750
2017-05-17T13:48:35.520Z,5270
2017-05-17T13:49:48.062Z,4595
2017-05-17T13:51:00.607Z,4225
2017-05-17T13:52:12.858Z,4340
2017-05-17T13:53:25.432Z,4140
2017-05-17T13:54:38.015Z,4125
2017-05-17T13:55:50.284Z,4170
2017-05-17T13:57:02.841Z,4335
2017-05-17T13:58:14.826Z,4020
2017-05-17T13:59:27.086Z,3735
2017-05-17T14:00:39.651Z,3445
2017-05-17T14:01:52.201Z,3775
2017-05-17T14:03:04.143Z,3810
2017-05-17T14:04:16.434Z,3830
2017-05-17T14:05:28.985Z,4005
2017-05-17T14:06:41.226Z,4125
2017-05-17T14:07:53.194Z,3735
2017-05-17T14:09:05.775Z,3220
2017-05-17T14:10:18.048Z,3865
2017-05-17T14:11:30.606Z,3915
2017-05-17T14:12:43.166Z,3700
2017-05-17T14:13:55.446Z,3625
2017-05-17T14:15:07.719Z,3720
2017-05-17T14:16:19.989Z,3610
2017-05-17T14:17:31.973Z,3555
2017-05-17T14:18:44.261Z,3410
2017-05-17T14:19:56.840Z,3345
2017-05-17T14:21:09.405Z,1400
2017-05-17T14:22:21.654Z,1670
2017-05-17T14:23:34.202Z,3515
2017-05-17T14:24:46.772Z,3665
2017-05-17T14:25:59.397Z,3650
2017-05-17T14:27:11.966Z,3830
2017-05-17T14:28:24.236Z,3625
2017-05-17T14:29:36.809Z,1155
2017-05-17T14:30:49.054Z,965
2017-05-17T14:32:01.610Z,750
2017-05-17T14:33:13.640Z,2150
2017-05-17T14:34:25.903Z,2990
2017-05-17T14:35:38.448Z,3135
2017-05-17T14:36:50.704Z,3490
2017-05-17T14:38:03.555Z,2930
2017-05-17T14:39:16.136Z,2730
2017-05-17T14:40:28.711Z,1190
2017-05-17T14:41:41.240Z,460
2017-05-17T14:42:53.813Z,410
2017-05-17T14:44:06.379Z,420
2017-05-17T14:45:18.944Z,425
2017-05-17T14:46:31.473Z,405
2017-05-17T14:47:43.737Z,385
2017-05-17T14:48:56.291Z,385
2017-05-17T14:50:08.534Z,380
2017-05-17T14:51:20.762Z,385
2017-05-17T14:52:33.353Z,390
2017-05-17T14:53:45.641Z,400
2017-05-17T14:54:57.895Z,405
2017-05-17T14:56:10.139Z,410
2017-05-17T14:57:22.400Z,395
2017-05-17T14:58:34.948Z,515
2017-05-17T14:59:47.506Z,660
2017-05-17T15:01:00.049Z,515
2017-05-17T15:02:11.992Z,450
2017-05-17T15:03:24.240Z,515
2017-05-17T15:04:36.489Z,740
2017-05-17T15:05:48.729Z,390
2017-05-17T15:07:01.276Z,1120
2017-05-17T15:08:13.842Z,565
2017-05-17T15:09:25.766Z,375
2017-05-17T15:10:38.019Z,380
2017-05-17T15:11:50.580Z,385
2017-05-17T15:13:03.122Z,365
2017-05-17T15:14:15.668Z,430
2017-05-17T15:15:28.227Z,680
2017-05-17T15:16:40.788Z,510
2017-05-17T15:17:53.018Z,360
2017-05-17T15:19:05.313Z,365
2017-05-17T15:20:17.584Z,370
2017-05-17T15:21:30.125Z,365
2017-05-17T15:22:42.351Z,360
2017-05-17T15:23:54.911Z,350
2017-05-17T15:25:07.438Z,340
2017-05-17T15:26:19.392Z,335
2017-05-17T15:27:31.652Z,340
2017-05-17T15:28:44.227Z,335
2017-05-17T15:29:56.815Z,335
2017-05-17T15:31:09.364Z,335
2017-05-17T15:32:21.594Z,330
2017-05-17T15:33:34.167Z,330
2017-05-17T15:34:46.714Z,350
2017-05-17T15:35:59.254Z,385
2017-05-17T15:37:11.801Z,375
2017-05-17T15:38:24.419Z,365
2017-05-17T15:39:36.969Z,360
2017-05-17T15:40:49.511Z,350
2017-05-17T15:42:02.059Z,355
2017-05-17T15:43:14.553Z,335
2017-05-17T15:44:27.104Z,330
2017-05-17T15:45:39.344Z,325
2017-05-17T15:46:51.894Z,320
2017-05-17T15:48:04.435Z,320
2017-05-17T15:49:16.977Z,320
2017-05-17T15:50:29.230Z,325
2017-05-17T15:51:41.474Z,325
2017-05-17T15:52:54.042Z,325
2017-05-17T15:54:06.312Z,400
2017-05-17T15:55:18.554Z,405
2017-05-17T15:56:31.090Z,365
2017-05-17T15:57:43.670Z,325
2017-05-17T15:58:56.203Z,310
2017-05-17T16:00:08.499Z,310
2017-05-17T16:01:20.766Z,315
2017-05-17T16:02:33.014Z,310
2017-05-17T16:03:45.575Z,305
2017-05-17T16:04:58.157Z,300
2017-05-17T16:06:10.118Z,295
2017-05-17T16:07:22.349Z,290
2017-05-17T16:08:34.874Z,285
2017-05-17T16:09:47.442Z,280
2017-05-17T16:10:59.976Z,275
2017-05-17T16:12:12.556Z,275
2017-05-17T16:13:24.802Z,275
2017-05-17T16:14:36.756Z,265
2017-05-17T16:15:49.324Z,260
2017-05-17T16:17:01.868Z,260
2017-05-17T16:18:14.125Z,260
2017-05-17T16:19:26.384Z,260
2017-05-17T16:20:38.930Z,255
2017-05-17T16:21:51.480Z,255
2017-05-17T16:23:04.046Z,250
2017-05-17T16:24:16.360Z,240
2017-05-17T16:25:28.889Z,235
2017-05-17T16:26:41.449Z,235
2017-05-17T16:27:53.977Z,235
2017-05-17T16:29:06.497Z,235
2017-05-17T16:30:19.036Z,235
2017-05-17T16:31:31.597Z,235
2017-05-17T16:32:44.152Z,230
2017-05-17T16:33:56.705Z,230